Time;durP1;ratioP1;P1;durP2;ratioP2;P2;SDS_P1;SDS_P2;PMS_P1;PMS_P2;Temp;Humidity;BMP_temperature;BMP_pressure;BME280_temperature;BME280_humidity;BME280_pressure;Samples;Min_cycle;Max_cycle;Signal;HPM_P1;HPM_P2
2022/06/15 00:02:22;;;;;;;5.03;2.72;;;23.30;55.40;;;;;;10056406;28;20438;-62
2022/06/15 00:07:13;;;;;;;4.75;3.20;;;23.40;55.10;;;;;;10056071;28;20025;-63
2022/06/15 00:12:04;;;;;;;3.90;2.50;;;23.40;55.10;;;;;;10062625;28;20037;-61
2022/06/15 00:16:55;;;;;;;5.03;3.42;;;23.40;55.10;;;;;;10036437;28;20028;-60
2022/06/15 00:21:46;;;;;;;4.60;2.97;;;23.10;55.50;;;;;;10054792;28;20443;-61
2022/06/15 00:26:38;;;;;;;4.13;2.15;;;23.00;56.00;;;;;;10045052;28;20080;-62
2022/06/15 00:31:29;;;;;;;5.07;2.70;;;23.00;55.90;;;;;;10054376;28;20034;-61
2022/06/15 00:36:21;;;;;;;3.65;2.20;;;23.00;55.90;;;;;;10031039;28;20045;-59
2022/06/15 00:41:21;;;;;;;4.70;3.33;;;22.90;55.90;;;;;;10057470;28;20553;-60
2022/06/15 00:46:37;;;;;;;5.72;2.88;;;23.00;55.90;;;;;;10043954;28;20033;-61
2022/06/15 00:51:29;;;;;;;4.83;2.73;;;22.90;56.20;;;;;;10047282;28;20180;-61
2022/06/15 00:56:20;;;;;;;8.95;2.53;;;22.70;56.30;;;;;;10054691;28;20041;-61
2022/06/15 01:01:11;;;;;;;4.95;2.58;;;22.70;56.20;;;;;;10054137;28;20025;-61
2022/06/15 01:06:30;;;;;;;2.72;2.38;;;22.80;56.20;;;;;;10052857;28;20360;-62
2022/06/15 01:11:45;;;;;;;4.55;2.35;;;22.80;56.30;;;;;;10065207;28;20037;-60
2022/06/15 01:16:51;;;;;;;3.67;2.83;;;22.60;56.50;;;;;;10052689;28;20029;-61
2022/06/15 01:21:50;;;;;;;8.00;2.72;;;22.40;56.90;;;;;;10052637;28;20025;-61
2022/06/15 01:26:53;;;;;;;4.90;2.95;;;22.40;56.90;;;;;;10035607;28;20028;-61
2022/06/15 01:31:59;;;;;;;7.32;3.13;;;22.50;57.20;;;;;;10035615;28;20022;-63
2022/06/15 01:37:02;;;;;;;5.93;3.17;;;22.40;57.00;;;;;;10037580;28;20399;-59
2022/06/15 01:42:00;;;;;;;5.88;3.00;;;22.20;57.20;;;;;;10052939;28;20116;-62
2022/06/15 01:46:51;;;;;;;5.88;2.70;;;22.30;57.30;;;;;;10053149;28;20317;-60
2022/06/15 01:51:44;;;;;;;5.10;2.95;;;22.30;57.10;;;;;;10057444;28;20022;-60
2022/06/15 01:56:39;;;;;;;5.28;2.92;;;22.20;57.20;;;;;;10054373;28;20120;-61
2022/06/15 02:01:38;;;;;;;4.45;2.80;;;22.00;57.80;;;;;;10052944;28;20216;-60
2022/06/15 02:06:53;;;;;;;10.45;3.00;;;21.90;58.20;;;;;;10031666;28;20520;-60
2022/06/15 02:11:43;;;;;;;4.78;3.20;;;22.00;58.00;;;;;;10051880;28;20056;-60
2022/06/15 02:16:43;;;;;;;4.93;3.30;;;21.90;57.70;;;;;;10051168;28;20077;-60
2022/06/15 02:21:37;;;;;;;2.70;2.22;;;21.80;58.00;;;;;;10051191;28;20126;-60
2022/06/15 02:26:35;;;;;;;4.13;2.28;;;21.70;58.10;;;;;;10051456;28;20029;-61
2022/06/15 02:31:26;;;;;;;5.47;2.90;;;21.80;58.00;;;;;;10051584;28;20482;-61
2022/06/15 02:36:18;;;;;;;3.38;2.67;;;21.80;57.80;;;;;;10060965;28;20034;-62
2022/06/15 02:41:09;;;;;;;3.65;2.63;;;21.70;57.80;;;;;;10059338;28;20025;-60
2022/06/15 02:46:02;;;;;;;5.72;2.80;;;21.70;58.00;;;;;;10060954;28;20237;-61
2022/06/15 02:51:00;;;;;;;5.95;3.30;;;21.70;58.00;;;;;;10058359;28;20028;-60
2022/06/15 02:55:52;;;;;;;3.60;2.05;;;21.50;58.50;;;;;;10058111;28;20041;-62
2022/06/15 03:00:43;;;;;;;3.65;2.92;;;21.50;58.40;;;;;;10061284;28;20021;-62
2022/06/15 03:05:34;;;;;;;3.75;2.58;;;21.50;58.30;;;;;;10055272;28;20053;-61
2022/06/15 03:10:25;;;;;;;2.90;2.00;;;21.20;58.60;;;;;;10056099;28;20018;-62
2022/06/15 03:15:16;;;;;;;4.90;2.80;;;21.00;58.90;;;;;;10067824;28;20042;-61
2022/06/15 03:20:09;;;;;;;3.72;2.13;;;21.10;58.60;;;;;;10060102;28;20040;-60
2022/06/15 03:24:59;;;;;;;5.85;2.25;;;21.10;58.60;;;;;;10061219;28;20029;-61
2022/06/15 03:29:50;;;;;;;2.97;2.20;;;21.00;58.70;;;;;;10058962;28;20017;-60
2022/06/15 03:34:41;;;;;;;4.45;2.65;;;21.00;58.60;;;;;;10055782;28;20494;-59
2022/06/15 03:39:32;;;;;;;3.78;2.38;;;21.00;58.60;;;;;;10056247;28;20104;-59
2022/06/15 03:44:23;;;;;;;3.00;2.30;;;21.10;58.50;;;;;;10063533;28;20041;-59
2022/06/15 03:49:15;;;;;;;5.40;2.42;;;21.10;58.70;;;;;;10054346;28;20096;-60
2022/06/15 03:54:06;;;;;;;3.85;2.40;;;21.10;58.70;;;;;;10055628;28;20045;-59
2022/06/15 03:58:56;;;;;;;5.82;2.67;;;20.70;59.50;;;;;;10060198;28;20048;-60
2022/06/15 04:03:47;;;;;;;3.65;2.92;;;20.70;59.50;;;;;;10055097;28;20249;-62
2022/06/15 04:08:38;;;;;;;6.45;2.83;;;20.70;59.30;;;;;;10054481;28;20044;-60
2022/06/15 04:13:28;;;;;;;3.60;2.50;;;20.60;59.50;;;;;;10057069;28;20044;-59
2022/06/15 04:18:20;;;;;;;3.53;2.28;;;20.80;59.40;;;;;;10055099;28;20029;-62
2022/06/15 04:23:15;;;;;;;4.20;2.55;;;20.70;59.40;;;;;;10055650;28;20072;-63
2022/06/15 04:28:07;;;;;;;4.75;2.80;;;20.60;59.60;;;;;;10042943;28;20026;-61
2022/06/15 04:32:58;;;;;;;3.10;2.58;;;20.60;59.80;;;;;;10054690;28;20079;-60
2022/06/15 04:37:49;;;;;;;5.63;2.67;;;20.70;59.70;;;;;;10049039;28;20040;-62
2022/06/15 04:42:41;;;;;;;4.28;2.50;;;20.70;59.80;;;;;;10063265;28;20025;-60
2022/06/15 04:47:31;;;;;;;8.95;2.90;;;20.70;60.00;;;;;;10054247;28;20070;-64
2022/06/15 04:52:22;;;;;;;6.60;2.88;;;20.70;60.30;;;;;;10054828;28;20025;-61
2022/06/15 04:57:13;;;;;;;6.65;4.28;;;20.80;60.20;;;;;;10052527;28;20040;-61
2022/06/15 05:02:04;;;;;;;6.70;3.30;;;20.90;60.20;;;;;;10057243;28;20036;-60
2022/06/15 05:06:55;;;;;;;4.90;3.45;;;20.80;60.50;;;;;;10050482;28;20125;-60
2022/06/15 05:11:45;;;;;;;7.03;3.58;;;20.80;60.70;;;;;;10034814;28;20522;-60
2022/06/15 05:16:37;;;;;;;6.13;3.08;;;20.90;60.70;;;;;;10052959;28;20313;-61
2022/06/15 05:21:28;;;;;;;3.38;2.88;;;20.90;60.60;;;;;;10046692;28;20357;-62
2022/06/15 05:26:18;;;;;;;5.72;2.83;;;21.00;60.40;;;;;;10052529;28;20093;-60
2022/06/15 05:31:14;;;;;;;5.00;2.80;;;21.00;60.80;;;;;;10052428;28;20129;-61
2022/06/15 05:36:09;;;;;;;;;;;21.00;61.00;;;;;;10031756;28;20049;-60
2022/06/15 05:40:59;;;;;;;5.83;3.27;;;21.00;61.00;;;;;;10040404;28;19943;-62
2022/06/15 05:45:50;;;;;;;3.88;3.13;;;20.90;61.00;;;;;;10051730;28;20080;-61
2022/06/15 05:50:41;;;;;;;3.22;2.80;;;21.00;61.00;;;;;;10051881;28;20029;-62
2022/06/15 05:55:31;;;;;;;4.05;3.13;;;21.30;60.80;;;;;;10051882;28;20037;-62
2022/06/15 06:00:25;;;;;;;6.35;3.35;;;21.40;60.70;;;;;;10054258;28;20033;-62
2022/06/15 06:05:15;;;;;;;5.10;3.65;;;21.60;60.40;;;;;;10041959;28;20050;-63
2022/06/15 06:10:10;;;;;;;4.97;3.10;;;21.40;60.80;;;;;;10054621;28;20402;-64
2022/06/15 06:15:01;;;;;;;6.43;3.17;;;21.30;61.30;;;;;;10046863;28;20037;-61
2022/06/15 06:19:52;;;;;;;4.80;3.45;;;21.20;61.10;;;;;;10047041;28;20112;-62
2022/06/15 06:24:42;;;;;;;5.80;3.47;;;21.20;61.30;;;;;;10062710;28;20032;-61
2022/06/15 06:29:33;;;;;;;6.25;3.17;;;21.50;61.20;;;;;;10059361;28;20155;-61
2022/06/15 06:34:25;;;;;;;5.53;3.85;;;21.70;60.70;;;;;;10065203;28;20136;-62
2022/06/15 06:39:19;;;;;;;3.78;3.17;;;21.90;60.80;;;;;;10087268;28;20013;-61
2022/06/15 06:44:11;;;;;;;6.72;4.07;;;21.90;60.90;;;;;;10072911;28;20033;-61
2022/06/15 06:49:07;;;;;;;5.57;3.00;;;22.00;61.00;;;;;;10075219;28;20111;-60
2022/06/15 06:53:58;;;;;;;6.32;3.63;;;22.10;61.00;;;;;;10074061;28;20025;-62
2022/06/15 06:58:48;;;;;;;6.88;3.92;;;22.10;60.90;;;;;;10072540;28;20014;-61
2022/06/15 07:03:39;;;;;;;6.78;3.58;;;22.10;61.10;;;;;;10075837;28;20133;-62
2022/06/15 07:08:30;;;;;;;9.27;3.78;;;22.20;60.90;;;;;;10065612;28;20072;-60
2022/06/15 07:13:21;;;;;;;7.40;3.47;;;22.10;60.90;;;;;;10060963;28;20331;-60
2022/06/15 07:18:12;;;;;;;5.18;3.55;;;22.20;61.10;;;;;;10072706;28;20504;-60
2022/06/15 07:23:03;;;;;;;4.07;2.95;;;22.30;60.80;;;;;;10070983;28;20109;-60
2022/06/15 07:27:53;;;;;;;5.05;2.95;;;22.50;60.60;;;;;;10072943;28;20414;-60
2022/06/15 07:32:45;;;;;;;6.03;2.67;;;22.60;60.50;;;;;;10081129;28;20266;-60
2022/06/15 07:37:36;;;;;;;4.90;3.00;;;22.70;60.30;;;;;;10081068;28;20031;-60
2022/06/15 07:42:26;;;;;;;5.60;3.10;;;22.90;60.20;;;;;;10075665;28;20021;-60
2022/06/15 07:52:31;;;;;;;7.47;2.65;;;23.00;59.90;;;;;;10056311;28;20047;-59
2022/06/15 07:57:23;;;;;;;5.45;3.40;;;23.10;59.90;;;;;;10065546;28;20406;-60
2022/06/15 08:02:14;;;;;;;3.50;2.63;;;23.10;59.80;;;;;;10038163;28;20114;-61
2022/06/15 08:07:06;;;;;;;5.28;3.28;;;23.30;59.50;;;;;;10054486;28;20068;-62
2022/06/15 08:12:12;;;;;;;9.00;3.03;;;23.30;59.40;;;;;;10069672;28;20063;-61
2022/06/15 08:17:05;;;;;;;6.20;3.17;;;23.40;59.40;;;;;;10056442;28;20324;-62
2022/06/15 08:21:56;;;;;;;7.18;2.97;;;23.50;59.20;;;;;;10057684;28;20071;-61
2022/06/15 08:26:47;;;;;;;3.17;2.78;;;23.70;59.00;;;;;;10055364;28;20023;-62
2022/06/15 08:31:39;;;;;;;8.35;3.13;;;23.80;58.90;;;;;;10054257;28;20021;-61
2022/06/15 08:36:30;;;;;;;3.75;2.72;;;23.90;58.80;;;;;;10030165;28;20041;-60
2022/06/15 08:41:46;;;;;;;4.82;3.90;;;24.00;58.60;;;;;;10062481;28;20114;-62
2022/06/15 08:47:02;;;;;;;6.85;3.70;;;24.20;58.30;;;;;;10068782;28;20029;-61
2022/06/15 08:52:05;;;;;;;5.80;3.03;;;24.30;58.00;;;;;;10052917;28;20033;-61
2022/06/15 08:57:19;;;;;;;4.95;3.40;;;24.40;57.80;;;;;;10052111;28;20102;-62
2022/06/15 09:02:34;;;;;;;7.07;3.00;;;24.60;57.60;;;;;;10053198;28;20060;-61
2022/06/15 09:07:32;;;;;;;7.68;3.25;;;24.60;57.30;;;;;;10058518;28;20496;-61
2022/06/15 09:13:07;;;;;;;6.75;2.92;;;24.70;57.30;;;;;;10076658;28;20165;-60
2022/06/15 09:18:07;;;;;;;6.03;3.00;;;25.00;56.60;;;;;;10049665;28;20051;-61
2022/06/15 09:23:05;;;;;;;9.98;4.20;;;25.20;56.70;;;;;;10064719;28;20052;-61
2022/06/15 09:28:23;;;;;;;5.80;3.40;;;25.40;56.50;;;;;;10068262;28;20025;-62
2022/06/15 09:33:25;;;;;;;5.38;2.63;;;25.70;56.10;;;;;;10029597;28;20037;-62
2022/06/15 09:38:16;;;;;;;4.63;3.67;;;25.90;55.90;;;;;;10071648;28;20045;-62
2022/06/15 09:43:39;;;;;;;7.25;3.60;;;25.90;55.90;;;;;;10074303;28;20057;-61
2022/06/15 09:48:54;;;;;;;5.07;2.85;;;25.90;55.60;;;;;;10065429;28;20042;-62
2022/06/15 09:54:19;;;;;;;7.15;3.45;;;26.00;55.60;;;;;;10070097;28;20496;-59
2022/06/15 09:59:15;;;;;;;;;;;26.10;55.70;;;;;;10073776;28;20025;-60
2022/06/15 10:04:07;;;;;;;8.63;3.10;;;26.10;55.70;;;;;;10071444;28;19924;-61
2022/06/15 10:09:00;;;;;;;7.97;3.80;;;26.20;55.60;;;;;;10085076;28;20080;-59
2022/06/15 10:13:51;;;;;;;5.18;3.13;;;26.20;55.50;;;;;;10078818;28;20072;-59
2022/06/15 10:18:49;;;;;;;5.63;3.55;;;26.30;55.20;;;;;;10069061;28;20080;-58
2022/06/15 10:23:58;;;;;;;5.82;3.75;;;26.50;55.00;;;;;;10069962;28;20120;-58
2022/06/15 10:28:49;;;;;;;5.20;3.15;;;26.70;54.80;;;;;;10068795;28;20521;-60
2022/06/15 10:33:49;;;;;;;6.30;4.80;;;26.60;54.80;;;;;;10047606;28;20034;-59
2022/06/15 10:38:42;;;;;;;7.38;3.15;;;26.70;54.60;;;;;;10059343;28;20021;-61
2022/06/15 10:43:35;;;;;;;5.55;2.95;;;26.80;54.60;;;;;;10074048;28;20495;-60
2022/06/15 10:48:41;;;;;;;7.93;3.38;;;27.20;54.20;;;;;;10066932;28;20404;-62
2022/06/15 10:53:50;;;;;;;6.90;3.50;;;27.10;54.10;;;;;;10054468;28;20025;-61
2022/06/15 11:04:04;;;;;;;10.32;3.90;;;27.20;53.40;;;;;;10048976;28;20118;-62
2022/06/15 11:08:55;;;;;;;8.02;4.72;;;27.20;53.60;;;;;;10071928;28;20392;-62
2022/06/15 11:13:55;;;;;;;7.40;3.65;;;27.30;53.50;;;;;;10069266;28;20033;-62
2022/06/15 11:19:08;;;;;;;5.30;3.00;;;27.50;53.20;;;;;;10078977;28;20090;-61
2022/06/15 11:24:15;;;;;;;4.90;3.25;;;27.60;53.00;;;;;;10070942;28;20065;-65
2022/06/15 11:29:26;;;;;;;4.75;3.00;;;27.70;53.10;;;;;;10062488;28;20028;-61
2022/06/15 11:34:21;;;;;;;6.55;3.40;;;28.00;52.70;;;;;;10083058;28;20047;-61
2022/06/15 11:39:32;;;;;;;6.25;3.70;;;28.10;52.60;;;;;;10087490;28;20483;-60
2022/06/15 11:44:28;;;;;;;4.90;3.10;;;28.40;52.40;;;;;;10071638;28;20029;-62
2022/06/15 11:49:37;;;;;;;5.40;3.50;;;28.40;52.40;;;;;;10075573;28;20029;-60
2022/06/15 11:54:50;;;;;;;8.82;3.10;;;28.40;52.20;;;;;;10070874;28;20217;-64
2022/06/15 12:00:02;;;;;;;5.20;3.15;;;28.30;52.00;;;;;;10066979;28;20064;-59
2022/06/15 12:05:32;;;;;;;6.25;3.28;;;28.50;51.70;;;;;;10069233;28;20061;-60
2022/06/15 12:10:41;;;;;;;4.88;3.00;;;29.00;51.10;;;;;;10045879;28;20064;-60
2022/06/15 12:16:06;;;;;;;10.32;4.57;;;29.50;51.20;;;;;;10054412;28;20044;-61
2022/06/15 12:21:09;;;;;;;5.30;3.53;;;29.80;51.20;;;;;;10023471;28;20458;-60
2022/06/15 12:26:08;;;;;;;4.60;2.95;;;30.20;51.20;;;;;;10055419;28;20041;-60
2022/06/15 12:31:18;;;;;;;4.95;3.20;;;30.90;51.10;;;;;;10132237;27;20415;-60
2022/06/15 12:36:26;;;;;;;5.65;3.67;;;31.30;50.70;;;;;;10130501;28;20162;-61
2022/06/15 12:46:32;;;;;;;5.88;2.80;;;31.60;50.20;;;;;;10147378;28;20043;-62
2022/06/15 12:51:28;;;;;;;3.92;2.50;;;32.30;49.70;;;;;;10154700;28;20020;-65
2022/06/15 12:56:28;;;;;;;3.58;2.65;;;33.30;48.70;;;;;;10131944;28;20027;-60
2022/06/15 13:01:24;;;;;;;3.92;2.85;;;34.20;46.20;;;;;;10151140;28;20030;-59
2022/06/15 13:06:23;;;;;;;4.28;2.53;;;35.40;47.00;;;;;;10147813;28;20450;-61
2022/06/15 13:11:17;;;;;;;3.90;2.10;;;36.40;45.90;;;;;;10139566;28;20017;-63
2022/06/15 13:16:28;;;;;;;4.40;2.67;;;37.10;44.80;;;;;;10141282;28;20021;-61
2022/06/15 13:21:28;;;;;;;4.20;2.80;;;37.70;43.80;;;;;;10138420;28;20028;-61
2022/06/15 13:26:46;;;;;;;3.27;2.97;;;38.30;43.20;;;;;;10144376;28;20582;-61
2022/06/15 13:31:55;;;;;;;3.72;3.15;;;38.90;42.40;;;;;;10165955;28;20471;-61
2022/06/15 13:37:23;;;;;;;4.95;2.72;;;38.50;39.30;;;;;;10178751;28;20035;-63
2022/06/15 13:42:30;;;;;;;3.25;2.67;;;38.00;40.50;;;;;;10153667;28;20028;-64
2022/06/15 13:47:24;;;;;;;4.47;2.47;;;38.30;39.80;;;;;;10165843;28;20458;-62
2022/06/15 13:52:24;;;;;;;3.00;2.40;;;38.90;39.30;;;;;;10133634;28;20028;-64
2022/06/15 13:57:32;;;;;;;4.45;2.28;;;38.80;38.90;;;;;;10143441;28;20021;-61
2022/06/15 14:02:44;;;;;;;3.63;2.42;;;39.00;38.50;;;;;;10149181;28;20083;-61
2022/06/15 14:07:58;;;;;;;5.25;2.30;;;39.10;37.80;;;;;;10164170;28;20084;-63
2022/06/15 14:13:07;;;;;;;2.38;2.17;;;39.10;37.30;;;;;;10161864;28;20494;-60
2022/06/15 14:18:22;;;;;;;4.13;2.58;;;39.80;37.10;;;;;;10154317;28;20032;-60
2022/06/15 14:23:25;;;;;;;3.83;2.70;;;39.80;36.70;;;;;;10151226;28;20017;-60
2022/06/15 14:28:21;;;;;;;2.47;2.00;;;39.80;36.30;;;;;;10153384;28;20048;-60
2022/06/15 14:33:24;;;;;;;3.75;2.63;;;40.10;36.10;;;;;;10158510;28;20559;-63
2022/06/15 14:38:21;;;;;;;6.18;5.07;;;38.90;35.80;;;;;;10152094;28;20072;-60
2022/06/15 14:43:12;;;;;;;4.07;2.25;;;39.80;35.60;;;;;;10166489;28;20021;-60
2022/06/15 14:48:11;;;;;;;3.60;2.60;;;40.10;35.40;;;;;;10143741;28;20032;-61
2022/06/15 14:53:22;;;;;;;2.90;2.22;;;41.20;34.80;;;;;;10154590;28;20100;-59
2022/06/15 14:58:20;;;;;;;2.20;2.00;;;40.20;34.40;;;;;;10151552;28;20121;-63
2022/06/15 15:03:26;;;;;;;3.55;2.60;;;40.60;34.90;;;;;;10147942;28;20028;-63
2022/06/15 15:08:20;;;;;;;2.53;2.00;;;40.20;33.80;;;;;;10148975;28;20041;-62
2022/06/15 15:13:34;;;;;;;2.30;2.10;;;39.50;35.20;;;;;;10156691;28;20035;-61
2022/06/15 15:18:37;;;;;;;3.25;2.95;;;40.00;34.70;;;;;;10143877;28;20023;-61
2022/06/15 15:23:43;;;;;;;4.30;2.28;;;39.40;34.90;;;;;;10146332;28;20514;-63
2022/06/15 15:34:11;;;;;;;3.75;3.13;;;39.70;34.40;;;;;;10150579;28;20390;-61
2022/06/15 15:39:13;;;;;;;2.95;2.42;;;40.00;34.60;;;;;;10149835;28;20490;-64
2022/06/15 15:44:05;;;;;;;2.50;2.30;;;40.80;33.90;;;;;;10166748;28;20058;-62
2022/06/15 15:48:55;;;;;;;2.70;2.22;;;40.60;34.30;;;;;;10156850;28;20532;-63
2022/06/15 15:53:46;;;;;;;3.35;2.45;;;40.10;34.40;;;;;;10148922;28;20091;-64
2022/06/15 15:58:37;;;;;;;2.55;2.35;;;40.10;33.90;;;;;;10145130;28;20034;-65
2022/06/15 16:03:28;;;;;;;3.47;2.85;;;40.60;33.90;;;;;;10153541;28;20023;-63
2022/06/15 16:08:20;;;;;;;3.88;2.33;;;40.90;33.90;;;;;;10153049;28;20028;-62
2022/06/15 16:13:12;;;;;;;2.45;2.25;;;41.30;33.70;;;;;;10150511;28;20031;-62
2022/06/15 16:18:04;;;;;;;3.90;2.35;;;40.90;33.50;;;;;;10156809;28;20024;-63
2022/06/15 16:22:55;;;;;;;3.58;2.63;;;41.40;33.20;;;;;;10162858;28;20028;-63
2022/06/15 16:27:47;;;;;;;2.83;2.20;;;42.40;32.90;;;;;;10147200;28;20048;-63
2022/06/15 16:32:39;;;;;;;2.78;2.53;;;42.40;32.50;;;;;;10158850;28;20033;-62
2022/06/15 16:37:29;;;;;;;2.72;1.98;;;42.50;32.20;;;;;;10155044;28;20016;-61
2022/06/15 16:42:20;;;;;;;2.33;2.13;;;42.50;31.90;;;;;;10148540;28;20042;-62
2022/06/15 16:47:11;;;;;;;2.75;2.28;;;42.40;31.30;;;;;;10142667;28;20024;-60
2022/06/15 16:52:02;;;;;;;2.78;2.17;;;42.30;30.90;;;;;;10142803;28;20033;-63
2022/06/15 16:56:54;;;;;;;2.40;2.20;;;42.40;30.50;;;;;;10147523;28;20021;-63
2022/06/15 17:01:47;;;;;;;2.58;2.03;;;42.80;30.30;;;;;;10122647;28;20029;-63
2022/06/15 17:06:38;;;;;;;3.95;2.42;;;44.20;29.80;;;;;;10154484;28;20314;-63
2022/06/15 17:11:29;;;;;;;6.40;2.40;;;43.00;29.80;;;;;;10151980;28;20097;-63
2022/06/15 17:16:20;;;;;;;3.35;2.08;;;42.60;29.70;;;;;;10141682;28;20028;-62
2022/06/15 17:21:12;;;;;;;2.50;2.00;;;42.40;29.60;;;;;;10159260;28;20024;-64
2022/06/15 17:26:09;;;;;;;3.47;1.92;;;43.10;29.60;;;;;;10150041;28;20048;-61
2022/06/15 17:30:59;;;;;;;4.15;1.83;;;43.30;29.30;;;;;;10160852;28;20101;-62
2022/06/15 17:35:50;;;;;;;2.75;1.80;;;42.40;29.50;;;;;;10135421;28;20028;-65
2022/06/15 17:40:43;;;;;;;2.00;1.80;;;41.60;29.80;;;;;;10161221;28;20056;-62
2022/06/15 17:45:34;;;;;;;1.88;1.73;;;41.20;29.70;;;;;;10166074;28;20032;-64
2022/06/15 17:50:25;;;;;;;3.80;2.10;;;40.60;29.70;;;;;;10139428;28;20044;-62
2022/06/15 17:55:15;;;;;;;2.67;1.77;;;40.40;29.70;;;;;;10145713;28;20027;-63
2022/06/15 18:00:10;;;;;;;1.90;1.80;;;40.20;29.60;;;;;;10145522;28;20253;-64
2022/06/15 18:05:00;;;;;;;6.10;2.20;;;39.00;29.80;;;;;;10141425;28;20541;-63
2022/06/15 18:09:51;;;;;;;2.28;1.73;;;36.90;31.20;;;;;;10151431;28;20223;-64
2022/06/15 18:14:44;;;;;;;6.03;1.70;;;35.60;30.90;;;;;;10151640;28;20058;-63
2022/06/15 18:19:38;;;;;;;4.60;2.95;;;34.90;31.20;;;;;;10163837;28;20036;-63
2022/06/15 18:24:30;;;;;;;2.72;1.88;;;34.30;31.20;;;;;;10162542;28;20012;-62
2022/06/15 18:29:21;;;;;;;5.57;1.95;;;34.00;31.20;;;;;;10161651;28;20044;-62
2022/06/15 18:34:12;;;;;;;4.13;2.00;;;33.90;31.30;;;;;;10156271;28;20028;-64
2022/06/15 18:39:06;;;;;;;4.47;2.58;;;33.90;31.50;;;;;;10154543;28;20020;-62
2022/06/15 18:49:07;;;;;;;3.95;2.17;;;33.20;32.10;;;;;;10157170;28;19993;-64
2022/06/15 18:53:57;;;;;;;3.83;1.90;;;33.10;31.90;;;;;;10137552;28;20070;-64
2022/06/15 18:58:49;;;;;;;3.20;2.05;;;33.00;31.90;;;;;;10160053;28;20551;-60
2022/06/15 19:03:40;;;;;;;10.98;4.60;;;32.90;32.10;;;;;;10165440;28;20121;-61
2022/06/15 19:08:33;;;;;;;10.10;5.55;;;32.90;32.10;;;;;;10153174;28;20116;-64
2022/06/15 19:13:25;;;;;;;7.87;6.70;;;32.70;32.40;;;;;;10172437;28;20024;-65
2022/06/15 19:18:19;;;;;;;5.93;4.22;;;32.50;32.90;;;;;;10172769;28;20073;-63
2022/06/15 19:23:11;;;;;;;4.45;2.80;;;32.30;33.20;;;;;;10167861;28;20024;-64
2022/06/15 19:28:01;;;;;;;6.15;3.97;;;32.20;33.40;;;;;;10164623;28;20048;-63
2022/06/15 19:32:52;;;;;;;7.15;2.92;;;32.00;33.80;;;;;;10168774;28;20039;-64
2022/06/15 19:37:43;;;;;;;6.28;3.22;;;31.90;34.10;;;;;;10151601;28;20292;-63
2022/06/15 19:42:35;;;;;;;6.82;3.08;;;31.80;34.40;;;;;;10169962;28;20116;-63
2022/06/15 19:47:25;;;;;;;5.60;3.60;;;31.70;34.70;;;;;;10162345;28;20043;-64
2022/06/15 19:52:16;;;;;;;7.07;4.28;;;31.50;35.00;;;;;;10165826;28;20021;-62
2022/06/15 19:57:07;;;;;;;7.97;5.20;;;31.40;35.30;;;;;;10151845;28;20382;-62
2022/06/15 20:01:58;;;;;;;12.18;6.95;;;31.40;35.50;;;;;;10156625;28;20028;-61
2022/06/15 20:06:52;;;;;;;7.53;4.97;;;31.20;36.00;;;;;;10156312;28;20020;-62
2022/06/15 20:11:44;;;;;;;8.68;4.93;;;31.00;36.30;;;;;;10165388;28;20119;-64
2022/06/15 20:16:40;;;;;;;8.02;4.55;;;31.00;36.60;;;;;;10158267;28;20417;-61
2022/06/15 20:21:35;;;;;;;6.05;4.32;;;30.90;36.90;;;;;;10143640;28;20047;-62
2022/06/15 20:26:27;;;;;;;6.93;4.57;;;30.80;37.20;;;;;;10160275;28;20274;-62
2022/06/15 20:31:21;;;;;;;6.80;4.47;;;30.70;37.10;;;;;;10157325;28;20032;-62
2022/06/15 20:36:12;;;;;;;6.78;4.05;;;30.80;37.10;;;;;;10143719;28;20583;-63
2022/06/15 20:41:03;;;;;;;5.53;4.05;;;30.70;37.10;;;;;;10144284;28;20690;-62
2022/06/15 20:45:56;;;;;;;12.23;5.50;;;30.60;37.30;;;;;;10143814;28;20051;-61
2022/06/15 20:50:48;;;;;;;5.93;4.30;;;30.50;37.70;;;;;;10158682;28;20036;-62
2022/06/15 21:00:49;;;;;;;11.98;7.25;;;30.20;38.20;;;;;;10155935;28;20582;-61
2022/06/15 21:05:39;;;;;;;8.43;5.57;;;30.10;38.40;;;;;;10171025;28;20245;-62
2022/06/15 21:20:48;;;;;;;12.13;6.18;;;29.80;39.70;;;;;;10165537;28;20058;-61
2022/06/15 21:25:39;;;;;;;8.23;6.40;;;29.70;40.00;;;;;;10154613;28;20492;-62
2022/06/15 21:30:31;;;;;;;9.68;6.07;;;29.60;40.40;;;;;;10168772;28;20067;-61
2022/06/15 21:35:21;;;;;;;8.30;5.50;;;29.40;40.90;;;;;;10153992;28;20115;-61
2022/06/15 21:40:13;;;;;;;11.52;6.72;;;29.40;41.20;;;;;;10159522;28;20107;-63
2022/06/15 21:45:10;;;;;;;10.52;6.40;;;29.30;41.40;;;;;;10160653;28;20035;-62
2022/06/15 21:50:03;;;;;;;10.35;5.75;;;29.20;41.60;;;;;;10147505;28;20305;-61
2022/06/15 21:54:53;;;;;;;6.25;4.65;;;29.20;42.10;;;;;;10155961;28;20027;-61
2022/06/15 21:59:44;;;;;;;5.88;4.07;;;29.10;42.20;;;;;;10158299;28;20027;-61
2022/06/15 22:04:35;;;;;;;9.82;4.07;;;29.00;42.30;;;;;;10156603;28;20112;-62
2022/06/15 22:09:26;;;;;;;5.32;4.00;;;28.90;42.30;;;;;;10147232;28;20418;-61
2022/06/15 22:14:17;;;;;;;5.80;3.95;;;28.90;42.50;;;;;;10147924;28;20023;-61
2022/06/15 22:19:08;;;;;;;3.70;3.00;;;28.90;43.30;;;;;;10142917;28;20029;-63
2022/06/15 22:23:58;;;;;;;8.25;3.83;;;28.70;42.70;;;;;;10146373;28;20436;-62
2022/06/15 22:28:50;;;;;;;5.93;4.50;;;28.70;42.70;;;;;;10154675;28;20059;-64
2022/06/15 22:33:41;;;;;;;10.38;5.55;;;28.60;42.70;;;;;;10160695;28;20020;-64
2022/06/15 22:38:32;;;;;;;7.53;4.80;;;28.40;42.80;;;;;;10155551;28;20390;-61
2022/06/15 22:43:23;;;;;;;6.95;4.47;;;28.40;43.10;;;;;;10173542;28;20032;-61
2022/06/15 22:50:39;;;;;;;9.15;4.85;;;28.20;43.50;;;;;;10161126;28;20033;-62
2022/06/15 22:53:26;;;;;;;9.50;5.50;;;28.10;43.90;;;;;;10158155;28;20070;-64
2022/06/15 22:58:16;;;;;;;14.27;6.65;;;28.10;44.10;;;;;;10144197;28;20032;-61
2022/06/15 23:03:07;;;;;;;12.10;4.97;;;27.90;44.30;;;;;;10160272;28;20393;-61
2022/06/15 23:07:58;;;;;;;10.93;5.15;;;28.00;44.60;;;;;;10157645;28;20052;-61
2022/06/15 23:12:50;;;;;;;10.45;5.05;;;27.90;44.80;;;;;;10159357;28;20043;-61
2022/06/15 23:17:41;;;;;;;9.60;4.22;;;27.70;45.20;;;;;;10147789;28;20410;-61
2022/06/15 23:22:32;;;;;;;5.07;4.38;;;27.60;45.40;;;;;;10156540;28;20107;-61
2022/06/15 23:27:22;;;;;;;6.93;3.97;;;27.50;45.80;;;;;;10153910;28;20062;-62
2022/06/15 23:32:13;;;;;;;7.70;4.45;;;27.30;46.40;;;;;;10155450;28;20109;-62
2022/06/15 23:37:04;;;;;;;7.28;3.88;;;27.10;47.00;;;;;;10153762;28;20503;-61
2022/06/15 23:41:55;;;;;;;6.50;3.20;;;27.00;47.50;;;;;;10156586;28;20043;-61
2022/06/15 23:51:58;;;;;;;5.22;4.05;;;26.90;48.10;;;;;;10160549;28;20599;-62
2022/06/15 23:56:48;;;;;;;5.03;3.92;;;26.80;48.50;;;;;;10144914;28;20343;-61
